Kansas City, Missouri
Traffic Map
Current Weather Conditions
Kansas City, Missouri
Clear
Clear
21°
Feels Like: 21°
Wind Chill: 21° Ceiling: Unl
Heat Index: 21° Visibility: 10mi
Dew Point: 17° Wind: 0mph
Humidity: 78% Direction: ° ()
Pressure: 30.08in Gusts: 0mph
Raw Report DataKMKC 291254Z 00000KT 10SM CLR 21/17 A3008 RMK AO2 SLP181 T02060167
Traffic Incident Summary
Active as of:
Severity:
Category:
InformationThere was an issue retrieving the traffic information for this location. Please try a different location or try again shortly.
Advertisements
Track Severe Weather on mobile